sensor_id;sensor_type;location;lat;lon;timestamp;temperature;humidity
13426;DHT22;6785;57.918;12.530;2022-08-21T01:22:19;12.70;99.90
13426;DHT22;6785;57.918;12.530;2022-08-21T01:24:47;12.70;99.90
13426;DHT22;6785;57.918;12.530;2022-08-21T01:27:13;12.70;99.90
13426;DHT22;6785;57.918;12.530;2022-08-21T01:29:44;12.70;99.90
13426;DHT22;6785;57.918;12.530;2022-08-21T01:32:14;12.70;99.90
13426;DHT22;6785;57.918;12.530;2022-08-21T01:34:43;12.70;99.90
13426;DHT22;6785;57.918;12.530;2022-08-21T01:37:12;12.60;99.90
13426;DHT22;6785;57.918;12.530;2022-08-21T01:39:40;12.60;99.90
13426;DHT22;6785;57.918;12.530;2022-08-21T01:42:08;12.50;99.90
13426;DHT22;6785;57.918;12.530;2022-08-21T01:44:34;12.50;99.90
13426;DHT22;6785;57.918;12.530;2022-08-21T01:47:04;12.50;99.90
13426;DHT22;6785;57.918;12.530;2022-08-21T01:49:33;12.40;99.90
13426;DHT22;6785;57.918;12.530;2022-08-21T01:52:00;12.40;99.90
13426;DHT22;6785;57.918;12.530;2022-08-21T01:54:27;12.40;99.90
13426;DHT22;6785;57.918;12.530;2022-08-21T01:56:55;12.40;99.90
13426;DHT22;6785;57.918;12.530;2022-08-21T01:59:23;12.40;99.90
13426;DHT22;6785;57.918;12.530;2022-08-21T02:01:51;12.40;99.90
13426;DHT22;6785;57.918;12.530;2022-08-21T02:04:20;12.50;99.90
13426;DHT22;6785;57.918;12.530;2022-08-21T02:06:47;12.70;99.90
13426;DHT22;6785;57.918;12.530;2022-08-21T02:09:15;12.80;99.90
13426;DHT22;6785;57.918;12.530;2022-08-21T02:11:42;12.80;99.90
13426;DHT22;6785;57.918;12.530;2022-08-21T02:14:11;12.90;99.90
13426;DHT22;6785;57.918;12.530;2022-08-21T02:16:40;12.90;99.90
13426;DHT22;6785;57.918;12.530;2022-08-21T02:19:08;12.90;99.90
13426;DHT22;6785;57.918;12.530;2022-08-21T02:21:35;12.90;99.90
13426;DHT22;6785;57.918;12.530;2022-08-21T02:24:02;13.00;99.90
13426;DHT22;6785;57.918;12.530;2022-08-21T02:26:29;13.00;99.90
13426;DHT22;6785;57.918;12.530;2022-08-21T02:28:56;13.00;99.90
13426;DHT22;6785;57.918;12.530;2022-08-21T02:31:24;13.00;99.90
13426;DHT22;6785;57.918;12.530;2022-08-21T02:33:51;13.00;99.90
13426;DHT22;6785;57.918;12.530;2022-08-21T02:36:18;13.10;99.90
13426;DHT22;6785;57.918;12.530;2022-08-21T02:38:45;13.10;99.90
13426;DHT22;6785;57.918;12.530;2022-08-21T02:41:14;13.00;99.90
13426;DHT22;6785;57.918;12.530;2022-08-21T02:43:42;13.00;99.90
13426;DHT22;6785;57.918;12.530;2022-08-21T02:46:10;13.00;99.90
13426;DHT22;6785;57.918;12.530;2022-08-21T02:48:40;13.00;99.90
13426;DHT22;6785;57.918;12.530;2022-08-21T02:51:09;13.00;99.90
13426;DHT22;6785;57.918;12.530;2022-08-21T02:53:37;13.00;99.90
13426;DHT22;6785;57.918;12.530;2022-08-21T02:56:07;13.00;99.90
13426;DHT22;6785;57.918;12.530;2022-08-21T02:58:40;12.90;99.90
13426;DHT22;6785;57.918;12.530;2022-08-21T03:01:08;12.90;99.90
13426;DHT22;6785;57.918;12.530;2022-08-21T03:03:36;12.90;99.90
13426;DHT22;6785;57.918;12.530;2022-08-21T03:06:05;12.90;99.90
13426;DHT22;6785;57.918;12.530;2022-08-21T03:08:33;13.00;99.90
13426;DHT22;6785;57.918;12.530;2022-08-21T03:11:00;12.90;99.90
13426;DHT22;6785;57.918;12.530;2022-08-21T03:13:28;12.90;99.90
13426;DHT22;6785;57.918;12.530;2022-08-21T03:15:56;12.80;99.90
13426;DHT22;6785;57.918;12.530;2022-08-21T03:18:23;12.90;99.90
13426;DHT22;6785;57.918;12.530;2022-08-21T03:30:50;12.60;99.90
13426;DHT22;6785;57.918;12.530;2022-08-21T03:36:57;12.40;99.90
13426;DHT22;6785;57.918;12.530;2022-08-21T04:06:50;12.30;99.90
13426;DHT22;6785;57.918;12.530;2022-08-21T04:13:04;12.40;99.90
13426;DHT22;6785;57.918;12.530;2022-08-21T04:16:12;12.30;99.90
13426;DHT22;6785;57.918;12.530;2022-08-21T04:19:07;12.30;99.90
13426;DHT22;6785;57.918;12.530;2022-08-21T04:39:37;12.30;99.90
13426;DHT22;6785;57.918;12.530;2022-08-21T04:42:43;12.50;99.90
13426;DHT22;6785;57.918;12.530;2022-08-21T04:45:50;12.50;99.90
13426;DHT22;6785;57.918;12.530;2022-08-21T06:23:25;16.20;99.90
13426;DHT22;6785;57.918;12.530;2022-08-21T06:25:54;16.40;99.90
13426;DHT22;6785;57.918;12.530;2022-08-21T06:28:21;16.50;99.90
13426;DHT22;6785;57.918;12.530;2022-08-21T06:30:49;16.70;99.90
13426;DHT22;6785;57.918;12.530;2022-08-21T06:33:15;16.90;99.90
13426;DHT22;6785;57.918;12.530;2022-08-21T06:35:43;17.00;99.90
13426;DHT22;6785;57.918;12.530;2022-08-21T06:38:10;17.30;99.90
13426;DHT22;6785;57.918;12.530;2022-08-21T06:40:38;17.40;99.90
13426;DHT22;6785;57.918;12.530;2022-08-21T06:43:07;17.50;99.90
13426;DHT22;6785;57.918;12.530;2022-08-21T06:45:35;17.70;99.90
13426;DHT22;6785;57.918;12.530;2022-08-21T06:48:03;17.90;99.90
13426;DHT22;6785;57.918;12.530;2022-08-21T06:50:30;17.80;99.90
13426;DHT22;6785;57.918;12.530;2022-08-21T06:53:03;17.80;99.90
13426;DHT22;6785;57.918;12.530;2022-08-21T06:55:31;17.90;99.90
13426;DHT22;6785;57.918;12.530;2022-08-21T06:57:59;17.90;99.90
13426;DHT22;6785;57.918;12.530;2022-08-21T07:00:26;18.00;99.90
13426;DHT22;6785;57.918;12.530;2022-08-21T07:02:53;18.20;99.90
13426;DHT22;6785;57.918;12.530;2022-08-21T07:05:21;18.50;99.90
13426;DHT22;6785;57.918;12.530;2022-08-21T07:07:48;18.70;99.90
13426;DHT22;6785;57.918;12.530;2022-08-21T07:10:15;18.90;99.90
13426;DHT22;6785;57.918;12.530;2022-08-21T07:12:42;19.10;99.90
13426;DHT22;6785;57.918;12.530;2022-08-21T07:15:11;19.30;99.90
13426;DHT22;6785;57.918;12.530;2022-08-21T07:17:38;19.50;99.90
13426;DHT22;6785;57.918;12.530;2022-08-21T07:20:06;19.60;99.90
13426;DHT22;6785;57.918;12.530;2022-08-21T07:25:13;19.90;99.90
13426;DHT22;6785;57.918;12.530;2022-08-21T07:27:50;20.00;99.90
13426;DHT22;6785;57.918;12.530;2022-08-21T07:30:21;20.00;99.90
13426;DHT22;6785;57.918;12.530;2022-08-21T07:33:06;20.10;99.90
13426;DHT22;6785;57.918;12.530;2022-08-21T07:44:51;20.50;99.90
13426;DHT22;6785;57.918;12.530;2022-08-21T07:50:23;20.50;99.90
13426;DHT22;6785;57.918;12.530;2022-08-21T08:00:00;21.00;99.90
13426;DHT22;6785;57.918;12.530;2022-08-21T08:05:39;21.00;99.90
13426;DHT22;6785;57.918;12.530;2022-08-21T08:08:28;21.00;99.90
13426;DHT22;6785;57.918;12.530;2022-08-21T08:13:54;20.80;99.90
13426;DHT22;6785;57.918;12.530;2022-08-21T08:16:34;20.70;99.90
13426;DHT22;6785;57.918;12.530;2022-08-21T08:19:25;20.70;99.90
13426;DHT22;6785;57.918;12.530;2022-08-21T08:22:27;20.80;99.90
13426;DHT22;6785;57.918;12.530;2022-08-21T08:25:59;20.90;99.90
13426;DHT22;6785;57.918;12.530;2022-08-21T08:31:40;20.80;99.90
13426;DHT22;6785;57.918;12.530;2022-08-21T08:34:11;21.00;99.90
13426;DHT22;6785;57.918;12.530;2022-08-21T08:36:43;21.20;99.90
13426;DHT22;6785;57.918;12.530;2022-08-21T08:40:23;21.10;99.90
13426;DHT22;6785;57.918;12.530;2022-08-21T08:42:26;21.40;99.90
13426;DHT22;6785;57.918;12.530;2022-08-21T08:45:12;21.50;99.90
13426;DHT22;6785;57.918;12.530;2022-08-21T08:47:55;21.20;99.90
13426;DHT22;6785;57.918;12.530;2022-08-21T08:53:19;21.00;99.90
13426;DHT22;6785;57.918;12.530;2022-08-21T08:55:53;21.10;99.90
13426;DHT22;6785;57.918;12.530;2022-08-21T08:58:26;21.20;99.90
13426;DHT22;6785;57.918;12.530;2022-08-21T09:01:18;21.30;99.90
13426;DHT22;6785;57.918;12.530;2022-08-21T09:10:13;21.80;99.90
13426;DHT22;6785;57.918;12.530;2022-08-21T09:13:14;22.10;99.90
13426;DHT22;6785;57.918;12.530;2022-08-21T09:16:17;22.20;99.90
13426;DHT22;6785;57.918;12.530;2022-08-21T09:19:15;22.40;99.90
13426;DHT22;6785;57.918;12.530;2022-08-21T09:22:08;22.30;99.90
13426;DHT22;6785;57.918;12.530;2022-08-21T09:24:50;22.10;99.90
13426;DHT22;6785;57.918;12.530;2022-08-21T09:27:25;22.00;99.90
13426;DHT22;6785;57.918;12.530;2022-08-21T09:29:54;22.00;99.90
13426;DHT22;6785;57.918;12.530;2022-08-21T09:32:25;21.70;99.90
13426;DHT22;6785;57.918;12.530;2022-08-21T09:34:58;21.50;99.90
13426;DHT22;6785;57.918;12.530;2022-08-21T09:37:26;21.50;99.90
13426;DHT22;6785;57.918;12.530;2022-08-21T09:39:55;21.40;99.90
13426;DHT22;6785;57.918;12.530;2022-08-21T09:42:26;21.50;99.90
13426;DHT22;6785;57.918;12.530;2022-08-21T09:45:10;21.50;99.90
13426;DHT22;6785;57.918;12.530;2022-08-21T09:47:37;21.60;99.90
13426;DHT22;6785;57.918;12.530;2022-08-21T09:50:10;21.70;99.90
13426;DHT22;6785;57.918;12.530;2022-08-21T09:52:44;21.70;99.90
13426;DHT22;6785;57.918;12.530;2022-08-21T09:55:18;21.70;99.90
13426;DHT22;6785;57.918;12.530;2022-08-21T09:58:00;21.60;99.90
13426;DHT22;6785;57.918;12.530;2022-08-21T10:00:32;21.60;99.90
13426;DHT22;6785;57.918;12.530;2022-08-21T10:03:11;21.60;99.90
13426;DHT22;6785;57.918;12.530;2022-08-21T10:05:49;21.80;99.90
13426;DHT22;6785;57.918;12.530;2022-08-21T10:08:18;21.80;99.90
13426;DHT22;6785;57.918;12.530;2022-08-21T10:10:45;21.90;99.90
13426;DHT22;6785;57.918;12.530;2022-08-21T10:13:21;22.00;99.90
13426;DHT22;6785;57.918;12.530;2022-08-21T10:16:07;22.00;99.90
13426;DHT22;6785;57.918;12.530;2022-08-21T10:18:41;21.90;99.90
13426;DHT22;6785;57.918;12.530;2022-08-21T10:21:17;21.90;99.90
13426;DHT22;6785;57.918;12.530;2022-08-21T10:23:54;21.90;99.90
13426;DHT22;6785;57.918;12.530;2022-08-21T10:26:31;22.00;99.90
13426;DHT22;6785;57.918;12.530;2022-08-21T10:29:06;22.10;99.90
13426;DHT22;6785;57.918;12.530;2022-08-21T10:31:46;22.10;99.90
13426;DHT22;6785;57.918;12.530;2022-08-21T10:34:28;22.10;99.90
13426;DHT22;6785;57.918;12.530;2022-08-21T10:37:07;22.10;99.90
13426;DHT22;6785;57.918;12.530;2022-08-21T10:39:44;21.90;99.90
13426;DHT22;6785;57.918;12.530;2022-08-21T10:42:23;22.00;99.90
13426;DHT22;6785;57.918;12.530;2022-08-21T10:45:02;21.90;99.90
13426;DHT22;6785;57.918;12.530;2022-08-21T10:47:40;22.00;99.90
13426;DHT22;6785;57.918;12.530;2022-08-21T10:50:10;22.00;99.90
13426;DHT22;6785;57.918;12.530;2022-08-21T10:52:56;22.10;99.90
13426;DHT22;6785;57.918;12.530;2022-08-21T10:55:30;22.10;99.90
13426;DHT22;6785;57.918;12.530;2022-08-21T10:58:01;21.80;99.90
13426;DHT22;6785;57.918;12.530;2022-08-21T11:00:33;21.60;99.90
13426;DHT22;6785;57.918;12.530;2022-08-21T11:03:11;21.40;99.90
13426;DHT22;6785;57.918;12.530;2022-08-21T11:05:42;21.60;99.90
13426;DHT22;6785;57.918;12.530;2022-08-21T11:08:15;21.90;99.90
13426;DHT22;6785;57.918;12.530;2022-08-21T11:10:49;21.90;99.90
13426;DHT22;6785;57.918;12.530;2022-08-21T11:13:21;21.90;99.90
13426;DHT22;6785;57.918;12.530;2022-08-21T11:15:55;21.60;99.90
13426;DHT22;6785;57.918;12.530;2022-08-21T11:18:28;21.50;99.90
13426;DHT22;6785;57.918;12.530;2022-08-21T11:21:06;21.60;99.90
13426;DHT22;6785;57.918;12.530;2022-08-21T11:23:41;21.80;99.90
13426;DHT22;6785;57.918;12.530;2022-08-21T11:26:13;21.70;99.90
13426;DHT22;6785;57.918;12.530;2022-08-21T11:28:46;21.70;99.90
13426;DHT22;6785;57.918;12.530;2022-08-21T11:31:28;21.90;99.90
13426;DHT22;6785;57.918;12.530;2022-08-21T11:34:14;22.20;99.90
13426;DHT22;6785;57.918;12.530;2022-08-21T11:36:51;22.10;99.90
13426;DHT22;6785;57.918;12.530;2022-08-21T11:39:25;22.20;99.90
13426;DHT22;6785;57.918;12.530;2022-08-21T11:42:02;22.10;99.90
13426;DHT22;6785;57.918;12.530;2022-08-21T11:44:48;22.10;99.90
13426;DHT22;6785;57.918;12.530;2022-08-21T11:47:25;22.30;99.90
13426;DHT22;6785;57.918;12.530;2022-08-21T11:50:06;22.60;99.90
13426;DHT22;6785;57.918;12.530;2022-08-21T11:52:39;22.70;99.90
13426;DHT22;6785;57.918;12.530;2022-08-21T11:55:12;22.60;99.90
13426;DHT22;6785;57.918;12.530;2022-08-21T11:57:49;22.50;99.90
13426;DHT22;6785;57.918;12.530;2022-08-21T12:00:21;22.20;99.90
13426;DHT22;6785;57.918;12.530;2022-08-21T12:02:52;22.20;99.90
13426;DHT22;6785;57.918;12.530;2022-08-21T12:05:27;22.20;99.90
13426;DHT22;6785;57.918;12.530;2022-08-21T12:08:05;22.20;99.90
13426;DHT22;6785;57.918;12.530;2022-08-21T12:10:36;22.40;99.90
13426;DHT22;6785;57.918;12.530;2022-08-21T12:13:09;22.50;99.90
13426;DHT22;6785;57.918;12.530;2022-08-21T12:15:37;22.70;99.90
13426;DHT22;6785;57.918;12.530;2022-08-21T12:18:07;22.90;99.90
13426;DHT22;6785;57.918;12.530;2022-08-21T12:26:56;22.90;99.90
13426;DHT22;6785;57.918;12.530;2022-08-21T12:34:05;22.50;99.90
13426;DHT22;6785;57.918;12.530;2022-08-21T12:43:05;22.50;99.90
13426;DHT22;6785;57.918;12.530;2022-08-21T12:48:28;22.80;99.90
13426;DHT22;6785;57.918;12.530;2022-08-21T12:51:09;22.80;99.90
13426;DHT22;6785;57.918;12.530;2022-08-21T12:54:02;22.50;99.90
13426;DHT22;6785;57.918;12.530;2022-08-21T13:00:19;22.50;99.90
13426;DHT22;6785;57.918;12.530;2022-08-21T13:02:55;22.40;99.90
13426;DHT22;6785;57.918;12.530;2022-08-21T13:05:57;22.70;99.90
13426;DHT22;6785;57.918;12.530;2022-08-21T13:19:00;22.50;99.90
13426;DHT22;6785;57.918;12.530;2022-08-21T13:22:52;22.50;99.90
13426;DHT22;6785;57.918;12.530;2022-08-21T13:25:27;22.50;99.90
13426;DHT22;6785;57.918;12.530;2022-08-21T13:28:20;22.30;99.90
13426;DHT22;6785;57.918;12.530;2022-08-21T13:41:26;22.40;99.90
13426;DHT22;6785;57.918;12.530;2022-08-21T13:44:34;22.30;99.90
13426;DHT22;6785;57.918;12.530;2022-08-21T13:50:35;22.30;99.90
13426;DHT22;6785;57.918;12.530;2022-08-21T13:53:58;22.20;99.90
13426;DHT22;6785;57.918;12.530;2022-08-21T13:56:43;22.40;99.90
13426;DHT22;6785;57.918;12.530;2022-08-21T13:59:11;22.20;99.90
13426;DHT22;6785;57.918;12.530;2022-08-21T14:47:09;21.00;99.90
13426;DHT22;6785;57.918;12.530;2022-08-21T14:48:25;20.90;99.90
13426;DHT22;6785;57.918;12.530;2022-08-21T14:51:20;20.90;99.90
13426;DHT22;6785;57.918;12.530;2022-08-21T14:54:29;20.90;99.90
13426;DHT22;6785;57.918;12.530;2022-08-21T14:57:49;21.10;99.90
13426;DHT22;6785;57.918;12.530;2022-08-21T15:01:00;21.10;99.90
13426;DHT22;6785;57.918;12.530;2022-08-21T15:15:34;20.80;99.90
13426;DHT22;6785;57.918;12.530;2022-08-21T15:18:04;20.70;99.90
13426;DHT22;6785;57.918;12.530;2022-08-21T15:20:42;20.60;99.90
13426;DHT22;6785;57.918;12.530;2022-08-21T15:23:11;20.60;99.90
13426;DHT22;6785;57.918;12.530;2022-08-21T15:25:41;20.50;99.90
13426;DHT22;6785;57.918;12.530;2022-08-21T15:28:08;20.60;99.90
13426;DHT22;6785;57.918;12.530;2022-08-21T15:30:36;20.60;99.90
13426;DHT22;6785;57.918;12.530;2022-08-21T15:33:05;20.70;99.90
13426;DHT22;6785;57.918;12.530;2022-08-21T15:35:33;20.80;99.90
13426;DHT22;6785;57.918;12.530;2022-08-21T15:38:00;20.60;99.90
13426;DHT22;6785;57.918;12.530;2022-08-21T15:40:27;20.60;99.90
13426;DHT22;6785;57.918;12.530;2022-08-21T15:42:58;20.60;99.90
13426;DHT22;6785;57.918;12.530;2022-08-21T15:45:27;20.60;99.90
13426;DHT22;6785;57.918;12.530;2022-08-21T15:47:55;20.60;99.90
13426;DHT22;6785;57.918;12.530;2022-08-21T15:50:24;20.50;99.90
13426;DHT22;6785;57.918;12.530;2022-08-21T15:52:51;20.40;99.90
13426;DHT22;6785;57.918;12.530;2022-08-21T15:55:18;20.40;99.90
13426;DHT22;6785;57.918;12.530;2022-08-21T15:57:48;20.30;99.90
13426;DHT22;6785;57.918;12.530;2022-08-21T16:00:17;20.30;99.90
13426;DHT22;6785;57.918;12.530;2022-08-21T16:02:47;20.30;99.90
13426;DHT22;6785;57.918;12.530;2022-08-21T16:05:15;20.30;99.90
13426;DHT22;6785;57.918;12.530;2022-08-21T16:07:46;20.20;99.90
13426;DHT22;6785;57.918;12.530;2022-08-21T16:10:13;20.20;99.90
13426;DHT22;6785;57.918;12.530;2022-08-21T16:12:43;20.20;99.90
13426;DHT22;6785;57.918;12.530;2022-08-21T16:15:13;20.10;99.90
13426;DHT22;6785;57.918;12.530;2022-08-21T16:17:44;20.00;99.90
13426;DHT22;6785;57.918;12.530;2022-08-21T16:20:16;19.90;99.90
13426;DHT22;6785;57.918;12.530;2022-08-21T16:22:47;19.80;99.90
13426;DHT22;6785;57.918;12.530;2022-08-21T16:25:16;19.70;99.90
13426;DHT22;6785;57.918;12.530;2022-08-21T16:27:46;19.70;99.90
13426;DHT22;6785;57.918;12.530;2022-08-21T16:30:16;19.70;99.90
13426;DHT22;6785;57.918;12.530;2022-08-21T16:33:12;19.70;99.90
13426;DHT22;6785;57.918;12.530;2022-08-21T16:35:45;19.70;99.90
13426;DHT22;6785;57.918;12.530;2022-08-21T16:38:14;19.70;99.90
13426;DHT22;6785;57.918;12.530;2022-08-21T16:40:40;19.60;99.90
13426;DHT22;6785;57.918;12.530;2022-08-21T16:43:07;19.50;99.90
13426;DHT22;6785;57.918;12.530;2022-08-21T16:45:34;19.50;99.90
13426;DHT22;6785;57.918;12.530;2022-08-21T16:48:02;19.40;99.90
13426;DHT22;6785;57.918;12.530;2022-08-21T16:50:40;19.40;99.90
13426;DHT22;6785;57.918;12.530;2022-08-21T16:53:07;19.40;99.90
13426;DHT22;6785;57.918;12.530;2022-08-21T16:55:35;19.30;99.90
13426;DHT22;6785;57.918;12.530;2022-08-21T16:58:31;19.20;99.90
13426;DHT22;6785;57.918;12.530;2022-08-21T17:00:59;19.10;99.90
13426;DHT22;6785;57.918;12.530;2022-08-21T17:03:40;19.00;99.90
13426;DHT22;6785;57.918;12.530;2022-08-21T17:09:55;19.10;99.90
13426;DHT22;6785;57.918;12.530;2022-08-21T17:12:23;18.90;99.90
13426;DHT22;6785;57.918;12.530;2022-08-21T17:15:15;18.90;99.90
13426;DHT22;6785;57.918;12.530;2022-08-21T17:18:12;19.00;99.90
13426;DHT22;6785;57.918;12.530;2022-08-21T17:23:23;19.00;99.90
13426;DHT22;6785;57.918;12.530;2022-08-21T17:36:31;18.60;99.90
13426;DHT22;6785;57.918;12.530;2022-08-21T17:39:20;18.60;99.90
13426;DHT22;6785;57.918;12.530;2022-08-21T17:42:11;18.60;99.90
13426;DHT22;6785;57.918;12.530;2022-08-21T17:44:41;18.60;99.90
13426;DHT22;6785;57.918;12.530;2022-08-21T17:50:30;18.50;99.90
13426;DHT22;6785;57.918;12.530;2022-08-21T17:52:57;18.50;99.90
13426;DHT22;6785;57.918;12.530;2022-08-21T17:55:48;18.30;99.90
13426;DHT22;6785;57.918;12.530;2022-08-21T17:58:15;18.20;99.90
13426;DHT22;6785;57.918;12.530;2022-08-21T18:00:42;18.20;99.90
13426;DHT22;6785;57.918;12.530;2022-08-21T18:03:11;18.10;99.90
13426;DHT22;6785;57.918;12.530;2022-08-21T18:05:41;18.00;99.90
13426;DHT22;6785;57.918;12.530;2022-08-21T18:08:14;18.00;99.90
13426;DHT22;6785;57.918;12.530;2022-08-21T18:10:46;18.00;99.90
13426;DHT22;6785;57.918;12.530;2022-08-21T18:13:24;18.00;99.90
13426;DHT22;6785;57.918;12.530;2022-08-21T18:15:54;18.00;99.90
13426;DHT22;6785;57.918;12.530;2022-08-21T18:18:22;17.90;99.90
13426;DHT22;6785;57.918;12.530;2022-08-21T18:20:51;17.90;99.90
13426;DHT22;6785;57.918;12.530;2022-08-21T18:23:20;17.90;99.90
13426;DHT22;6785;57.918;12.530;2022-08-21T18:26:12;17.90;99.90
13426;DHT22;6785;57.918;12.530;2022-08-21T18:28:40;17.90;99.90
13426;DHT22;6785;57.918;12.530;2022-08-21T18:31:10;17.70;99.90
13426;DHT22;6785;57.918;12.530;2022-08-21T18:33:37;17.80;99.90
13426;DHT22;6785;57.918;12.530;2022-08-21T18:36:06;17.80;99.90
13426;DHT22;6785;57.918;12.530;2022-08-21T18:38:36;17.80;99.90
13426;DHT22;6785;57.918;12.530;2022-08-21T18:41:06;17.70;99.90
13426;DHT22;6785;57.918;12.530;2022-08-21T18:46:35;17.70;99.90
13426;DHT22;6785;57.918;12.530;2022-08-21T19:06:43;17.40;99.90
13426;DHT22;6785;57.918;12.530;2022-08-21T19:09:11;17.30;99.90
13426;DHT22;6785;57.918;12.530;2022-08-21T19:17:36;17.00;99.90
13426;DHT22;6785;57.918;12.530;2022-08-21T19:20:07;16.80;99.90
13426;DHT22;6785;57.918;12.530;2022-08-21T19:22:35;16.80;99.90
13426;DHT22;6785;57.918;12.530;2022-08-21T19:25:12;16.70;99.90
13426;DHT22;6785;57.918;12.530;2022-08-21T19:27:39;16.70;99.90
13426;DHT22;6785;57.918;12.530;2022-08-21T19:30:18;16.70;99.90
13426;DHT22;6785;57.918;12.530;2022-08-21T19:32:51;16.70;99.90
13426;DHT22;6785;57.918;12.530;2022-08-21T19:41:34;16.60;99.90
13426;DHT22;6785;57.918;12.530;2022-08-21T19:44:03;16.60;99.90
13426;DHT22;6785;57.918;12.530;2022-08-21T19:46:33;16.50;99.90
13426;DHT22;6785;57.918;12.530;2022-08-21T19:52:31;16.40;99.90
13426;DHT22;6785;57.918;12.530;2022-08-21T19:55:16;16.40;99.90
13426;DHT22;6785;57.918;12.530;2022-08-21T20:01:01;16.30;99.90
13426;DHT22;6785;57.918;12.530;2022-08-21T20:04:05;16.20;99.90
13426;DHT22;6785;57.918;12.530;2022-08-21T20:06:47;16.10;99.90
13426;DHT22;6785;57.918;12.530;2022-08-21T20:09:23;16.10;99.90
13426;DHT22;6785;57.918;12.530;2022-08-21T20:15:41;15.90;99.90
13426;DHT22;6785;57.918;12.530;2022-08-21T20:18:13;16.00;99.90
13426;DHT22;6785;57.918;12.530;2022-08-21T20:21:14;16.00;99.90
13426;DHT22;6785;57.918;12.530;2022-08-21T20:27:04;15.80;99.90
13426;DHT22;6785;57.918;12.530;2022-08-21T20:29:36;15.80;99.90
13426;DHT22;6785;57.918;12.530;2022-08-21T20:32:05;15.70;99.90
13426;DHT22;6785;57.918;12.530;2022-08-21T20:34:37;15.60;99.90
13426;DHT22;6785;57.918;12.530;2022-08-21T20:37:26;15.50;99.90
13426;DHT22;6785;57.918;12.530;2022-08-21T20:40:00;15.40;99.90
13426;DHT22;6785;57.918;12.530;2022-08-21T20:45:19;15.40;99.90
13426;DHT22;6785;57.918;12.530;2022-08-21T20:47:46;15.30;99.90
13426;DHT22;6785;57.918;12.530;2022-08-21T20:53:35;15.20;99.90
13426;DHT22;6785;57.918;12.530;2022-08-21T20:56:10;15.20;99.90
13426;DHT22;6785;57.918;12.530;2022-08-21T20:59:09;15.10;99.90
13426;DHT22;6785;57.918;12.530;2022-08-21T21:04:25;15.00;99.90
13426;DHT22;6785;57.918;12.530;2022-08-21T21:06:56;14.90;99.90
13426;DHT22;6785;57.918;12.530;2022-08-21T21:09:31;14.90;99.90
13426;DHT22;6785;57.918;12.530;2022-08-21T21:12:02;14.80;99.90
13426;DHT22;6785;57.918;12.530;2022-08-21T21:14:34;14.80;99.90
13426;DHT22;6785;57.918;12.530;2022-08-21T21:20:33;14.60;99.90
13426;DHT22;6785;57.918;12.530;2022-08-21T21:23:18;14.60;99.90
13426;DHT22;6785;57.918;12.530;2022-08-21T21:25:54;14.50;99.90
13426;DHT22;6785;57.918;12.530;2022-08-21T21:28:28;14.40;99.90
13426;DHT22;6785;57.918;12.530;2022-08-21T21:30:56;14.40;99.90
13426;DHT22;6785;57.918;12.530;2022-08-21T21:33:23;14.30;99.90
13426;DHT22;6785;57.918;12.530;2022-08-21T21:36:15;14.30;99.90
13426;DHT22;6785;57.918;12.530;2022-08-21T21:38:49;14.20;99.90
13426;DHT22;6785;57.918;12.530;2022-08-21T21:41:22;14.30;99.90
13426;DHT22;6785;57.918;12.530;2022-08-21T21:44:07;14.20;99.90
13426;DHT22;6785;57.918;12.530;2022-08-21T21:46:44;14.20;99.90
13426;DHT22;6785;57.918;12.530;2022-08-21T21:49:32;14.10;99.90
13426;DHT22;6785;57.918;12.530;2022-08-21T21:52:07;14.10;99.90
13426;DHT22;6785;57.918;12.530;2022-08-21T22:01:15;14.00;99.90
13426;DHT22;6785;57.918;12.530;2022-08-21T22:03:49;13.90;99.90
13426;DHT22;6785;57.918;12.530;2022-08-21T22:06:25;13.80;99.90
13426;DHT22;6785;57.918;12.530;2022-08-21T22:09:03;13.80;99.90
13426;DHT22;6785;57.918;12.530;2022-08-21T22:11:45;13.80;99.90
13426;DHT22;6785;57.918;12.530;2022-08-21T22:14:18;13.80;99.90
13426;DHT22;6785;57.918;12.530;2022-08-21T22:16:49;13.80;99.90
13426;DHT22;6785;57.918;12.530;2022-08-21T22:19:19;13.80;99.90
13426;DHT22;6785;57.918;12.530;2022-08-21T22:25:23;13.60;99.90
13426;DHT22;6785;57.918;12.530;2022-08-21T22:31:15;13.70;99.90
13426;DHT22;6785;57.918;12.530;2022-08-21T22:33:59;13.80;99.90
13426;DHT22;6785;57.918;12.530;2022-08-21T22:36:29;13.80;99.90
13426;DHT22;6785;57.918;12.530;2022-08-21T22:38:57;13.70;99.90
13426;DHT22;6785;57.918;12.530;2022-08-21T22:41:26;13.80;99.90
13426;DHT22;6785;57.918;12.530;2022-08-21T22:43:56;13.80;99.90
13426;DHT22;6785;57.918;12.530;2022-08-21T22:49:49;13.70;99.90
13426;DHT22;6785;57.918;12.530;2022-08-21T22:55:34;13.70;99.90
13426;DHT22;6785;57.918;12.530;2022-08-21T22:58:06;13.60;99.90
13426;DHT22;6785;57.918;12.530;2022-08-21T23:04:11;13.50;99.90
13426;DHT22;6785;57.918;12.530;2022-08-21T23:06:43;13.50;99.90
13426;DHT22;6785;57.918;12.530;2022-08-21T23:09:32;13.50;99.90
13426;DHT22;6785;57.918;12.530;2022-08-21T23:12:01;13.40;99.90
13426;DHT22;6785;57.918;12.530;2022-08-21T23:17:57;13.20;99.90
13426;DHT22;6785;57.918;12.530;2022-08-21T23:20:32;13.20;99.90
13426;DHT22;6785;57.918;12.530;2022-08-21T23:23:11;13.10;99.90
13426;DHT22;6785;57.918;12.530;2022-08-21T23:25:53;13.10;99.90
13426;DHT22;6785;57.918;12.530;2022-08-21T23:28:35;13.10;99.90
13426;DHT22;6785;57.918;12.530;2022-08-21T23:31:19;13.10;99.90
13426;DHT22;6785;57.918;12.530;2022-08-21T23:34:00;13.10;99.90
13426;DHT22;6785;57.918;12.530;2022-08-21T23:36:47;13.10;99.90
13426;DHT22;6785;57.918;12.530;2022-08-21T23:39:48;13.10;99.90
13426;DHT22;6785;57.918;12.530;2022-08-21T23:42:34;13.10;99.90
13426;DHT22;6785;57.918;12.530;2022-08-21T23:48:28;13.20;99.90
13426;DHT22;6785;57.918;12.530;2022-08-21T23:51:00;13.10;99.90
13426;DHT22;6785;57.918;12.530;2022-08-21T23:53:35;13.10;99.90
13426;DHT22;6785;57.918;12.530;2022-08-21T23:56:25;13.10;99.90
13426;DHT22;6785;57.918;12.530;2022-08-21T23:59:02;13.10;99.90
